Kinston Regional Jetport At Stallings Field
KISO : now visible

Airfield :











YOU CAN JOIN US ON...

 
LOGIN :

Register | Disclaimer

   EN    FR    IT 

 









Legend :    VFR   Marginal VFR   IFR   Intensive IFR   Very Intensive IFR
Visi :
Ceiling :
>= 8 km
>= 3000ft
5 to 8 km
1000 to 3000 ft
1500m to 5 km
500 to 1000 ft
800 to 1500m
200 to 500 ft
< 800m
< 200 ft
Symbols :   Thunderstorms  Fog  Heavy snow  Heavy precipitations  Wind > 20 kt






- Airport Elevation : 93 ft


KISO - Kinston Regional Jetport At Stallings Field

CURRENT METAR :
  • 110355Z AUTO 00000KT 10SM SCT100 23/22 A3001 RMK AO2 T02260218

EXPIRED METARs :
  • 110335Z AUTO 19003KT 10SM SCT100 23/22 A3001 RMK AO2 T02250218
  • 110315Z AUTO 18003KT 10SM CLR 22/22 A3001 RMK AO2 T02230218
  • 110255Z AUTO 00000KT 10SM CLR 22/22 A3002 RMK AO2 P0001 60001 T02230220
  • 110235Z AUTO 00000KT 10SM CLR 22/22 A3002 RMK AO2 P0001 T02240220
  • 110215Z AUTO 00000KT 10SM CLR 23/22 A3001 RMK AO2 P0001 T02280221
  • 110155Z AUTO 14003KT 10SM CLR 23/22 A3001 RMK AO2 T02310222
  • 110056Z 00000KT 10SM CLR 23/23 A3001

TAF KISO
Valid from the 11 at 00:00 until the 12 at 00:00 UTC


102335Z 1100/1124 VRB03KT P6SM SCT200
FM110800 00000KT 4SM BR SCT090
FM111300 VRB03KT P6SM SCT100
FM111700 16005KT P6SM BKN060 AMD LTD TO CLD VIS AND WIND
KZDC FIR / North America



MET'MAP, your aeronautical weather chart ! - Copyright ORBIFLY December 2007 - Disclaimer

ORBIFLY MET'MAP TEAM :

Programming & Development : Alexandra Zaïnal
Concept & original design : Baudouin d'Aumeries
Assistance for programming : Marc-Olivier Méhu
Technical & hardware support : Manuel Goepfert

Contact : metmap@orbifly.com




SOURCES & CREDITS :

   NOAA       Earth
Advisory